Time;durP1;ratioP1;P1;durP2;ratioP2;P2;SDS_P1;SDS_P2;PMS_P1;PMS_P2;Temp;Humidity;BMP_temperature;BMP_pressure;BME280_temperature;BME280_humidity;BME280_pressure;Samples;Min_cycle;Max_cycle;Signal;HPM_P1;HPM_P2
2022/08/02 00:00:21;;;;;;;4.32;1.88;;;;;;;;;;5035087;28;20064;-56
2022/08/02 00:03:03;;;;;;;5.00;2.05;;;;;;;;;;5032873;28;20057;-56
2022/08/02 00:05:33;;;;;;;4.57;2.00;;;;;;;;;;5035033;28;20068;-54
2022/08/02 00:08:02;;;;;;;3.92;1.80;;;;;;;;;;5034909;28;20429;-56
2022/08/02 00:10:31;;;;;;;3.10;1.77;;;;;;;;;;5035424;28;20053;-56
2022/08/02 00:13:09;;;;;;;2.85;1.67;;;;;;;;;;5035234;28;20057;-56
2022/08/02 00:15:36;;;;;;;5.80;1.92;;;;;;;;;;5035376;28;20140;-56
2022/08/02 00:18:07;;;;;;;4.28;1.85;;;;;;;;;;5034789;28;20465;-56
2022/08/02 00:20:37;;;;;;;2.95;1.98;;;;;;;;;;5034915;28;20065;-55
2022/08/02 00:23:03;;;;;;;4.88;2.10;;;;;;;;;;5034865;28;20454;-53
2022/08/02 00:25:33;;;;;;;3.88;2.20;;;;;;;;;;5034712;28;20061;-56
2022/08/02 00:28:02;;;;;;;4.45;1.88;;;;;;;;;;5034755;28;20049;-55
2022/08/02 00:30:33;;;;;;;4.28;1.92;;;;;;;;;;5034745;28;20394;-56
2022/08/02 00:33:04;;;;;;;3.20;1.92;;;;;;;;;;5035086;28;20049;-55
2022/08/02 00:35:41;;;;;;;6.22;2.17;;;;;;;;;;5034494;28;20045;-56
2022/08/02 00:38:11;;;;;;;3.38;2.38;;;;;;;;;;5034637;28;20520;-55
2022/08/02 00:40:38;;;;;;;5.22;2.45;;;;;;;;;;5034303;28;20131;-54
2022/08/02 00:43:06;;;;;;;5.00;2.03;;;;;;;;;;5034164;28;20056;-56
2022/08/02 00:45:36;;;;;;;6.07;2.70;;;;;;;;;;5034754;28;20053;-55
2022/08/02 00:48:06;;;;;;;4.72;2.28;;;;;;;;;;5035028;28;20050;-56
2022/08/02 00:50:36;;;;;;;4.35;2.05;;;;;;;;;;5034614;28;20080;-54
2022/08/02 00:53:03;;;;;;;3.05;2.20;;;;;;;;;;5034619;28;20061;-53
2022/08/02 00:55:31;;;;;;;7.70;2.20;;;;;;;;;;5034524;28;20076;-54
2022/08/02 00:57:59;;;;;;;3.65;1.80;;;;;;;;;;5034309;28;20053;-54
2022/08/02 01:00:25;;;;;;;2.42;1.88;;;;;;;;;;5034422;28;20052;-56
2022/08/02 01:02:55;;;;;;;7.05;2.15;;;;;;;;;;5033863;28;20498;-56
2022/08/02 01:05:24;;;;;;;5.35;2.47;;;;;;;;;;5034171;28;20052;-55
2022/08/02 01:07:57;;;;;;;4.25;2.10;;;;;;;;;;5034403;28;20103;-56
2022/08/02 01:10:27;;;;;;;3.72;2.40;;;;;;;;;;5034356;28;20053;-52
2022/08/02 01:12:56;;;;;;;4.05;2.35;;;;;;;;;;5034196;28;20107;-55
2022/08/02 01:15:24;;;;;;;3.85;2.60;;;;;;;;;;5034237;28;20057;-53
2022/08/02 01:17:56;;;;;;;3.15;2.22;;;;;;;;;;5033876;28;20375;-52
2022/08/02 01:20:39;;;;;;;3.45;2.38;;;;;;;;;;5034038;28;20057;-52
2022/08/02 01:23:25;;;;;;;4.03;2.47;;;;;;;;;;5034248;28;20053;-53
2022/08/02 01:26:20;;;;;;;6.22;2.63;;;;;;;;;;5033726;28;20119;-54
2022/08/02 01:28:50;;;;;;;4.40;2.80;;;;;;;;;;5033986;28;20150;-56
2022/08/02 01:31:28;;;;;;;6.75;2.90;;;;;;;;;;5033595;28;20064;-55
2022/08/02 01:33:59;;;;;;;5.07;2.85;;;;;;;;;;5014107;28;20451;-55
2022/08/02 01:36:30;;;;;;;6.30;2.70;;;;;;;;;;5013977;28;20050;-55
2022/08/02 01:38:57;;;;;;;5.93;2.78;;;;;;;;;;5013853;28;20085;-54
2022/08/02 01:41:26;;;;;;;5.65;2.97;;;;;;;;;;5014100;28;20072;-54
2022/08/02 01:44:04;;;;;;;7.55;3.08;;;;;;;;;;5013890;28;20053;-56
2022/08/02 01:46:40;;;;;;;6.03;3.15;;;;;;;;;;5026926;28;20060;-56
2022/08/02 01:49:12;;;;;;;6.00;3.22;;;;;;;;;;5033520;28;20085;-56
2022/08/02 01:54:26;;;;;;;6.82;3.40;;;;;;;;;;5033036;28;20053;-55
2022/08/02 01:56:55;;;;;;;5.88;3.00;;;;;;;;;;5033468;28;20061;-53
2022/08/02 01:59:28;;;;;;;4.82;3.10;;;;;;;;;;5018607;28;20068;-56
2022/08/02 02:01:55;;;;;;;6.10;3.25;;;;;;;;;;5033277;28;20485;-56
2022/08/02 02:04:24;;;;;;;4.63;2.97;;;;;;;;;;5033610;28;20046;-56
2022/08/02 02:06:55;;;;;;;5.28;3.45;;;;;;;;;;5012988;28;20073;-56
2022/08/02 02:09:24;;;;;;;4.93;3.17;;;;;;;;;;5013306;28;20057;-55
2022/08/02 02:11:53;;;;;;;8.65;3.47;;;;;;;;;;5013340;28;20140;-55
2022/08/02 02:14:23;;;;;;;4.78;3.00;;;;;;;;;;5012256;28;20050;-53
2022/08/02 02:16:52;;;;;;;4.38;3.10;;;;;;;;;;5013313;28;20411;-56
2022/08/02 02:19:22;;;;;;;7.57;3.70;;;;;;;;;;5013663;28;20049;-55
2022/08/02 02:21:52;;;;;;;6.13;3.08;;;;;;;;;;5013422;28;20133;-54
2022/08/02 02:24:23;;;;;;;6.03;2.90;;;;;;;;;;5019921;28;20053;-53
2022/08/02 02:26:51;;;;;;;6.07;3.35;;;;;;;;;;5033110;28;20054;-52
2022/08/02 02:29:29;;;;;;;4.28;3.17;;;;;;;;;;5033033;28;20107;-53
2022/08/02 02:32:13;;;;;;;8.38;2.97;;;;;;;;;;5017547;28;20592;-53
2022/08/02 02:34:42;;;;;;;4.38;2.85;;;;;;;;;;5032988;28;20049;-53
2022/08/02 02:37:16;;;;;;;4.28;2.97;;;;;;;;;;5032741;28;20053;-53
2022/08/02 02:39:46;;;;;;;5.75;3.03;;;;;;;;;;5032883;28;20077;-55
2022/08/02 02:42:19;;;;;;;3.95;3.00;;;;;;;;;;5032565;28;20418;-54
2022/08/02 02:44:55;;;;;;;9.32;3.33;;;;;;;;;;5032298;28;20141;-54
2022/08/02 02:47:27;;;;;;;6.07;3.00;;;;;;;;;;5012850;28;20104;-55
2022/08/02 02:50:05;;;;;;;4.45;2.92;;;;;;;;;;5015456;28;20137;-56
2022/08/02 02:52:34;;;;;;;8.63;3.42;;;;;;;;;;5032742;28;20081;-56
2022/08/02 02:55:12;;;;;;;5.97;2.83;;;;;;;;;;5032830;28;20080;-52
2022/08/02 02:57:40;;;;;;;5.20;2.90;;;;;;;;;;5033561;28;20061;-54
2022/08/02 03:00:10;;;;;;;4.00;2.65;;;;;;;;;;5036390;28;20058;-52
2022/08/02 03:02:42;;;;;;;5.22;3.15;;;;;;;;;;5036079;28;20104;-55
2022/08/02 03:05:20;;;;;;;5.32;3.00;;;;;;;;;;5036543;28;20051;-55
2022/08/02 03:07:50;;;;;;;7.18;3.08;;;;;;;;;;5036672;28;20132;-53
2022/08/02 03:10:20;;;;;;;6.15;2.72;;;;;;;;;;5036644;28;20111;-55
2022/08/02 03:12:48;;;;;;;4.43;3.08;;;;;;;;;;5035923;28;20140;-54
2022/08/02 03:15:19;;;;;;;3.42;2.63;;;;;;;;;;5036454;28;20072;-55
2022/08/02 03:18:02;;;;;;;4.30;2.72;;;;;;;;;;5036241;28;20492;-54
2022/08/02 03:20:32;;;;;;;5.35;2.92;;;;;;;;;;5036434;28;20057;-54
2022/08/02 03:23:02;;;;;;;7.07;3.30;;;;;;;;;;5036390;28;20136;-56
2022/08/02 03:25:32;;;;;;;4.55;3.17;;;;;;;;;;5036185;28;20132;-54
2022/08/02 03:28:02;;;;;;;5.63;3.00;;;;;;;;;;5036097;28;20053;-52
2022/08/02 03:30:32;;;;;;;5.03;2.85;;;;;;;;;;5036115;28;20053;-53
2022/08/02 03:33:06;;;;;;;5.47;3.00;;;;;;;;;;5035909;28;20088;-52
2022/08/02 03:35:34;;;;;;;6.40;3.22;;;;;;;;;;5036167;28;20060;-53
2022/08/02 03:38:03;;;;;;;5.68;2.58;;;;;;;;;;5036082;28;20041;-55
2022/08/02 03:40:34;;;;;;;7.75;2.67;;;;;;;;;;5035622;28;20470;-52
2022/08/02 03:43:01;;;;;;;9.00;2.60;;;;;;;;;;5036067;28;20049;-56
2022/08/02 03:45:29;;;;;;;7.70;3.33;;;;;;;;;;5035898;28;20072;-53
2022/08/02 03:47:56;;;;;;;4.07;2.40;;;;;;;;;;5035679;28;20057;-55
2022/08/02 03:50:30;;;;;;;8.70;2.85;;;;;;;;;;5035889;28;20107;-54
2022/08/02 03:52:58;;;;;;;8.13;2.80;;;;;;;;;;5035949;28;20049;-52
2022/08/02 03:55:26;;;;;;;5.68;2.45;;;;;;;;;;5035539;28;20088;-53
2022/08/02 03:57:56;;;;;;;7.15;2.70;;;;;;;;;;5035511;28;20053;-54
2022/08/02 04:00:23;;;;;;;5.30;2.28;;;;;;;;;;5035769;28;20080;-54
2022/08/02 04:02:53;;;;;;;5.40;2.30;;;;;;;;;;5035006;28;20056;-56
2022/08/02 04:05:23;;;;;;;3.28;1.98;;;;;;;;;;5035104;28;20049;-55
2022/08/02 04:08:05;;;;;;;5.93;2.30;;;;;;;;;;5035624;28;20141;-55
2022/08/02 04:11:29;;;;;;;5.18;2.00;;;;;;;;;;5034684;28;20077;-53
2022/08/02 04:13:25;;;;;;;9.45;2.10;;;;;;;;;;5034880;28;20057;-54
2022/08/02 04:15:55;;;;;;;8.05;2.13;;;;;;;;;;5035070;28;20082;-56
2022/08/02 04:18:34;;;;;;;6.07;2.15;;;;;;;;;;5035189;28;20049;-55
2022/08/02 04:21:04;;;;;;;4.80;2.20;;;;;;;;;;5035279;28;20057;-54
2022/08/02 04:23:36;;;;;;;15.13;2.20;;;;;;;;;;5035292;28;20118;-55
2022/08/02 04:26:06;;;;;;;7.90;2.63;;;;;;;;;;5034986;28;20077;-55
2022/08/02 04:28:37;;;;;;;8.13;2.03;;;;;;;;;;5035178;28;20045;-55
2022/08/02 04:31:13;;;;;;;7.97;1.70;;;;;;;;;;5033193;28;20356;-56
2022/08/02 04:33:44;;;;;;;3.63;1.65;;;;;;;;;;5034755;28;20133;-55
2022/08/02 04:36:13;;;;;;;5.97;1.90;;;;;;;;;;5034584;28;20447;-55
2022/08/02 04:38:51;;;;;;;6.15;2.05;;;;;;;;;;5034728;28;20096;-55
2022/08/02 04:41:17;;;;;;;5.25;1.90;;;;;;;;;;5034428;28;20133;-55
2022/08/02 04:43:47;;;;;;;4.78;2.00;;;;;;;;;;5034545;28;20054;-56
2022/08/02 04:46:14;;;;;;;3.42;1.70;;;;;;;;;;5034456;28;20060;-55
2022/08/02 04:48:44;;;;;;;4.53;1.73;;;;;;;;;;5034667;28;20139;-55
2022/08/02 04:51:14;;;;;;;16.17;2.40;;;;;;;;;;5034286;28;20387;-52
2022/08/02 04:53:57;;;;;;;9.85;2.30;;;;;;;;;;5033984;28;20462;-52
2022/08/02 04:56:27;;;;;;;8.57;3.33;;;;;;;;;;5034234;28;20050;-54
2022/08/02 04:58:57;;;;;;;3.92;1.63;;;;;;;;;;5034212;28;20148;-55
2022/08/02 05:01:25;;;;;;;4.55;1.50;;;;;;;;;;5034377;28;20115;-56
2022/08/02 05:03:55;;;;;;;7.13;1.88;;;;;;;;;;5033698;28;20057;-55
2022/08/02 05:06:21;;;;;;;6.88;1.55;;;;;;;;;;5034053;28;20168;-54
2022/08/02 05:08:50;;;;;;;5.00;1.40;;;;;;;;;;5029895;28;20041;-53
2022/08/02 05:11:18;;;;;;;6.38;1.60;;;;;;;;;;5033717;28;20068;-54
2022/08/02 05:13:47;;;;;;;7.93;2.15;;;;;;;;;;5033557;28;20450;-56
2022/08/02 05:16:17;;;;;;;7.43;1.85;;;;;;;;;;5033776;28;20056;-55
2022/08/02 05:18:45;;;;;;;7.70;2.10;;;;;;;;;;5033722;28;20111;-54
2022/08/02 05:21:16;;;;;;;73.57;6.32;;;;;;;;;;5033819;28;20103;-55
2022/08/02 05:23:43;;;;;;;12.85;2.33;;;;;;;;;;5032936;28;20407;-53
2022/08/02 05:26:12;;;;;;;22.88;2.83;;;;;;;;;;5029720;28;20057;-55
2022/08/02 05:28:42;;;;;;;13.30;2.22;;;;;;;;;;5033374;28;20064;-53
2022/08/02 05:31:08;;;;;;;17.80;2.30;;;;;;;;;;5033872;28;20057;-52
2022/08/02 05:33:38;;;;;;;7.40;1.70;;;;;;;;;;5032691;28;20061;-52
2022/08/02 05:36:08;;;;;;;4.00;1.40;;;;;;;;;;5033740;28;20064;-53
2022/08/02 05:38:39;;;;;;;5.32;1.60;;;;;;;;;;5033251;28;20057;-52
2022/08/02 05:41:07;;;;;;;8.32;1.55;;;;;;;;;;5033765;28;20466;-55
2022/08/02 05:43:47;;;;;;;34.75;3.17;;;;;;;;;;5033711;28;20057;-56
2022/08/02 05:46:17;;;;;;;76.47;4.93;;;;;;;;;;5033771;28;20057;-56
2022/08/02 05:48:47;;;;;;;13.93;2.10;;;;;;;;;;5032969;28;20486;-56
2022/08/02 05:51:22;;;;;;;9.75;1.80;;;;;;;;;;5033043;28;20067;-55
2022/08/02 05:53:58;;;;;;;7.35;1.50;;;;;;;;;;5013886;28;20054;-56
2022/08/02 05:56:29;;;;;;;4.93;1.60;;;;;;;;;;5013869;28;20128;-55
2022/08/02 05:59:03;;;;;;;89.65;7.35;;;;;;;;;;5029789;28;20482;-56
2022/08/02 06:01:43;;;;;;;3.97;1.10;;;;;;;;;;5033467;28;20049;-55
2022/08/02 06:04:14;;;;;;;9.57;1.52;;;;;;;;;;5032656;28;20375;-55
2022/08/02 06:06:51;;;;;;;5.30;1.48;;;;;;;;;;5033536;28;20374;-54
2022/08/02 06:09:22;;;;;;;20.50;1.83;;;;;;;;;;5033815;28;20073;-54
2022/08/02 06:11:58;;;;;;;6.63;1.60;;;;;;;;;;5033151;28;20142;-53
2022/08/02 06:14:34;;;;;;;8.15;1.85;;;;;;;;;;5033271;28;20060;-56
2022/08/02 06:17:03;;;;;;;4.38;1.27;;;;;;;;;;5027088;28;20136;-55
2022/08/02 06:19:33;;;;;;;7.97;1.65;;;;;;;;;;5023200;28;20049;-54
2022/08/02 06:22:13;;;;;;;8.10;1.48;;;;;;;;;;5030203;28;20049;-52
2022/08/02 06:24:44;;;;;;;10.95;1.70;;;;;;;;;;5032607;28;20054;-51
2022/08/02 06:27:16;;;;;;;5.40;1.50;;;;;;;;;;5032313;28;20049;-50
2022/08/02 06:29:48;;;;;;;5.07;0.93;;;;;;;;;;5032240;28;20042;-51
2022/08/02 06:32:17;;;;;;;8.18;1.30;;;;;;;;;;5032652;28;20461;-53
2022/08/02 06:34:50;;;;;;;5.78;1.30;;;;;;;;;;5036349;28;20096;-52
2022/08/02 06:37:26;;;;;;;5.85;1.25;;;;;;;;;;5035734;28;20687;-50
2022/08/02 06:39:59;;;;;;;8.35;1.30;;;;;;;;;;5035856;28;20049;-53
2022/08/02 06:42:36;;;;;;;7.20;1.50;;;;;;;;;;5034153;28;20397;-55
2022/08/02 06:45:09;;;;;;;28.00;4.70;;;;;;;;;;5036136;28;20133;-51
2022/08/02 06:47:39;;;;;;;32.58;3.42;;;;;;;;;;5034550;28;20107;-55
2022/08/02 06:50:10;;;;;;;28.85;2.58;;;;;;;;;;5035717;28;20482;-51
2022/08/02 06:52:38;;;;;;;17.38;2.20;;;;;;;;;;5035687;28;20081;-51
2022/08/02 06:55:09;;;;;;;9.13;1.73;;;;;;;;;;5035738;28;20466;-51
2022/08/02 06:57:38;;;;;;;9.90;1.85;;;;;;;;;;5035703;28;20528;-54
2022/08/02 07:00:11;;;;;;;8.07;1.55;;;;;;;;;;5036135;28;20053;-54
2022/08/02 07:02:39;;;;;;;7.30;1.55;;;;;;;;;;5035350;28;20461;-55
2022/08/02 07:05:07;;;;;;;10.15;1.60;;;;;;;;;;5036087;28;20056;-55
2022/08/02 07:07:37;;;;;;;42.70;4.53;;;;;;;;;;5035259;28;20104;-52
2022/08/02 07:10:05;;;;;;;4.40;1.02;;;;;;;;;;5036245;28;20100;-52
2022/08/02 07:12:34;;;;;;;16.65;2.42;;;;;;;;;;5030610;28;20068;-55
2022/08/02 07:15:03;;;;;;;9.48;1.50;;;;;;;;;;5035481;28;20367;-55
2022/08/02 07:17:33;;;;;;;7.63;1.15;;;;;;;;;;5035462;28;20050;-51
2022/08/02 07:20:01;;;;;;;4.97;1.33;;;;;;;;;;5035977;28;20050;-52
2022/08/02 07:22:37;;;;;;;5.00;1.00;;;;;;;;;;5033129;28;20065;-54
2022/08/02 07:25:07;;;;;;;11.38;1.73;;;;;;;;;;5035900;28;20053;-49
2022/08/02 07:27:37;;;;;;;32.38;3.10;;;;;;;;;;5035446;28;20049;-46
2022/08/02 07:30:10;;;;;;;4.90;1.30;;;;;;;;;;5035248;28;20038;-49
2022/08/02 07:32:51;;;;;;;6.93;1.00;;;;;;;;;;5034202;28;20123;-46
2022/08/02 07:35:24;;;;;;;6.60;1.73;;;;;;;;;;5035021;28;20077;-48
2022/08/02 07:37:52;;;;;;;3.97;1.30;;;;;;;;;;5035041;28;20115;-48
2022/08/02 07:40:21;;;;;;;7.53;1.13;;;;;;;;;;5034953;28;20407;-47
2022/08/02 07:42:58;;;;;;;4.97;1.15;;;;;;;;;;5035202;28;20059;-48
2022/08/02 07:45:26;;;;;;;21.05;2.17;;;;;;;;;;5033953;28;20057;-48
2022/08/02 07:47:56;;;;;;;7.13;1.30;;;;;;;;;;4974285;28;60795;-53
2022/08/02 07:50:27;;;;;;;5.88;1.25;;;;;;;;;;5026735;28;20152;-53
2022/08/02 07:52:56;;;;;;;3.30;1.10;;;;;;;;;;5015138;28;20054;-49
2022/08/02 07:55:25;;;;;;;6.47;1.13;;;;;;;;;;5014109;28;20145;-51
2022/08/02 07:57:52;;;;;;;5.30;1.40;;;;;;;;;;5014696;28;20455;-50
2022/08/02 08:00:18;;;;;;;4.65;1.10;;;;;;;;;;5015757;28;20052;-49
2022/08/02 08:02:46;;;;;;;6.15;1.30;;;;;;;;;;5014940;28;20054;-55
2022/08/02 08:05:22;;;;;;;6.88;1.20;;;;;;;;;;5017284;28;20192;-49
2022/08/02 08:07:50;;;;;;;4.03;1.38;;;;;;;;;;5016610;28;20054;-50
2022/08/02 08:10:17;;;;;;;4.85;1.30;;;;;;;;;;5015141;28;20116;-52
2022/08/02 08:12:47;;;;;;;4.90;1.05;;;;;;;;;;5014680;28;20136;-49
2022/08/02 08:15:16;;;;;;;6.40;1.38;;;;;;;;;;5014588;28;20141;-49
2022/08/02 08:17:42;;;;;;;5.68;1.55;;;;;;;;;;5014727;28;20072;-51
2022/08/02 08:20:12;;;;;;;4.65;1.08;;;;;;;;;;5014743;28;20061;-49
2022/08/02 08:22:42;;;;;;;6.72;1.40;;;;;;;;;;5014482;28;20073;-49
2022/08/02 08:25:10;;;;;;;12.48;1.98;;;;;;;;;;5013886;28;20075;-49
2022/08/02 08:27:38;;;;;;;7.38;1.15;;;;;;;;;;5014407;28;20085;-47
2022/08/02 08:30:07;;;;;;;3.65;0.95;;;;;;;;;;5011395;28;20038;-49
2022/08/02 08:32:33;;;;;;;13.35;1.90;;;;;;;;;;5014109;28;20438;-48
2022/08/02 08:35:00;;;;;;;11.50;1.63;;;;;;;;;;5013902;28;20136;-49
2022/08/02 08:37:30;;;;;;;2.78;1.05;;;;;;;;;;5013406;28;20054;-48
2022/08/02 08:39:58;;;;;;;7.50;1.33;;;;;;;;;;5014289;28;20383;-47
2022/08/02 08:42:27;;;;;;;6.13;1.20;;;;;;;;;;5014337;28;20129;-49
2022/08/02 08:44:55;;;;;;;4.85;1.30;;;;;;;;;;5013729;28;20050;-49
2022/08/02 08:47:26;;;;;;;10.70;1.33;;;;;;;;;;5014184;28;20083;-53
2022/08/02 08:49:54;;;;;;;7.72;1.55;;;;;;;;;;5014108;28;20042;-49
2022/08/02 08:52:23;;;;;;;49.17;4.45;;;;;;;;;;5013810;28;20118;-54
2022/08/02 08:54:49;;;;;;;5.60;0.90;;;;;;;;;;5014174;28;20058;-49
2022/08/02 08:57:30;;;;;;;8.43;1.50;;;;;;;;;;5013619;28;20381;-50
2022/08/02 09:00:00;;;;;;;6.25;1.30;;;;;;;;;;5014074;28;20049;-50
2022/08/02 09:02:30;;;;;;;5.85;1.30;;;;;;;;;;5013583;28;20096;-49
2022/08/02 09:04:59;;;;;;;7.53;1.50;;;;;;;;;;5013757;28;20120;-49
2022/08/02 09:07:29;;;;;;;5.18;0.98;;;;;;;;;;5014212;28;20053;-50
2022/08/02 09:09:59;;;;;;;7.60;1.20;;;;;;;;;;5014080;28;20056;-51
2022/08/02 09:12:27;;;;;;;11.15;1.83;;;;;;;;;;5013881;28;20069;-51
2022/08/02 09:14:57;;;;;;;4.85;1.23;;;;;;;;;;5014214;28;20054;-53
2022/08/02 09:17:27;;;;;;;56.10;4.57;;;;;;;;;;5014781;28;20145;-56
2022/08/02 09:20:09;;;;;;;10.77;1.73;;;;;;;;;;5015109;28;20086;-53
2022/08/02 09:22:38;;;;;;;52.70;4.30;;;;;;;;;;5013274;28;20064;-49
2022/08/02 09:25:14;;;;;;;197.65;14.88;;;;;;;;;;5013431;28;20450;-53
2022/08/02 09:27:48;;;;;;;5.05;1.00;;;;;;;;;;5013598;28;20049;-53
2022/08/02 09:30:16;;;;;;;4.00;1.15;;;;;;;;;;5013974;28;20125;-54
2022/08/02 09:32:48;;;;;;;2.70;0.88;;;;;;;;;;5012253;28;20479;-56
2022/08/02 09:35:30;;;;;;;3.72;1.33;;;;;;;;;;5013224;28;20728;-49
2022/08/02 09:40:14;;;;;;;430.30;33.35;;;;;;;;;;5011130;28;303773;-49
2022/08/02 09:42:57;;;;;;;8.05;1.45;;;;;;;;;;5024933;28;20057;-47
2022/08/02 09:45:33;;;;;;;11.27;1.83;;;;;;;;;;5035027;28;20057;-48
2022/08/02 09:48:03;;;;;;;8.20;1.50;;;;;;;;;;5049671;28;20100;-50
2022/08/02 09:50:31;;;;;;;12.82;1.33;;;;;;;;;;5044962;28;20478;-53
2022/08/02 09:53:01;;;;;;;14.35;1.52;;;;;;;;;;5034481;28;20045;-51
2022/08/02 09:55:35;;;;;;;4.22;1.02;;;;;;;;;;5046510;28;20041;-53
2022/08/02 09:58:17;;;;;;;11.43;1.40;;;;;;;;;;5046230;28;20049;-58
2022/08/02 10:00:53;;;;;;;6.05;1.30;;;;;;;;;;5046793;28;20136;-51
2022/08/02 10:03:24;;;;;;;8.93;1.15;;;;;;;;;;5035804;28;20068;-55
2022/08/02 10:06:03;;;;;;;3.75;1.00;;;;;;;;;;5044246;28;20455;-50
2022/08/02 10:08:32;;;;;;;2.60;0.82;;;;;;;;;;5038631;28;20053;-51
2022/08/02 10:11:03;;;;;;;5.07;0.98;;;;;;;;;;5049849;28;20132;-51
2022/08/02 10:13:39;;;;;;;9.38;1.10;;;;;;;;;;5033017;28;20064;-51
2022/08/02 10:16:16;;;;;;;6.40;1.20;;;;;;;;;;5038497;28;20049;-52
2022/08/02 10:18:44;;;;;;;6.32;0.85;;;;;;;;;;5049302;28;20045;-50
2022/08/02 10:21:22;;;;;;;3.42;0.93;;;;;;;;;;5045022;28;20096;-52
2022/08/02 10:23:52;;;;;;;4.05;0.98;;;;;;;;;;5046405;28;20061;-50
2022/08/02 10:26:26;;;;;;;2.63;0.75;;;;;;;;;;5049744;28;20053;-50
2022/08/02 10:28:57;;;;;;;1.85;0.75;;;;;;;;;;5049355;28;20103;-56
2022/08/02 10:31:27;;;;;;;2.28;0.60;;;;;;;;;;5045055;28;20076;-52
2022/08/02 10:34:01;;;;;;;4.00;1.10;;;;;;;;;;5048674;28;20045;-49
2022/08/02 10:36:34;;;;;;;4.15;0.98;;;;;;;;;;5049238;28;20049;-48
2022/08/02 10:39:02;;;;;;;6.93;0.82;;;;;;;;;;5048773;28;20053;-47
2022/08/02 10:41:45;;;;;;;5.40;1.15;;;;;;;;;;5035683;28;20072;-47
2022/08/02 10:44:22;;;;;;;5.20;0.80;;;;;;;;;;5048579;28;20099;-50
2022/08/02 10:46:52;;;;;;;3.45;0.80;;;;;;;;;;5044891;28;20492;-53
2022/08/02 10:49:20;;;;;;;4.10;0.85;;;;;;;;;;5048338;28;20114;-50
2022/08/02 10:52:12;;;;;;;5.63;1.30;;;;;;;;;;5025209;28;20049;-53
2022/08/02 10:54:48;;;;;;;5.93;0.90;;;;;;;;;;5031037;28;20541;-50
2022/08/02 10:57:27;;;;;;;5.45;1.20;;;;;;;;;;5032273;28;20926;-51
2022/08/02 10:59:58;;;;;;;5.68;0.85;;;;;;;;;;5018865;28;20048;-51
2022/08/02 11:02:52;;;;;;;2.45;0.88;;;;;;;;;;5014507;28;20621;-51
2022/08/02 11:05:26;;;;;;;4.85;1.08;;;;;;;;;;5022266;28;20092;-51
2022/08/02 11:07:57;;;;;;;;;;;;;;;;;;5017679;28;20042;-52
2022/08/02 11:10:43;;;;;;;4.82;0.73;;;;;;;;;;5014505;28;20008;-52
2022/08/02 11:13:25;;;;;;;6.80;1.30;;;;;;;;;;5014830;28;20398;-51
2022/08/02 11:15:57;;;;;;;8.63;1.50;;;;;;;;;;5015460;28;20107;-53
2022/08/02 11:18:48;;;;;;;8.52;1.45;;;;;;;;;;5034574;28;20053;-51
2022/08/02 11:21:30;;;;;;;3.17;0.75;;;;;;;;;;5020112;28;20065;-50
2022/08/02 11:24:29;;;;;;;6.45;0.93;;;;;;;;;;5018253;28;20041;-52
2022/08/02 11:27:02;;;;;;;7.15;1.17;;;;;;;;;;5022812;28;20068;-49
2022/08/02 11:29:34;;;;;;;3.30;0.83;;;;;;;;;;5024196;28;20473;-51
2022/08/02 11:32:01;;;;;;;2.97;0.70;;;;;;;;;;5041663;28;20378;-47
2022/08/02 11:34:33;;;;;;;4.22;1.25;;;;;;;;;;5031468;28;20479;-46
2022/08/02 11:37:02;;;;;;;5.30;0.77;;;;;;;;;;5014695;28;20173;-45
2022/08/02 11:39:32;;;;;;;5.10;1.50;;;;;;;;;;5013225;28;20089;-45
2022/08/02 11:42:01;;;;;;;6.85;1.58;;;;;;;;;;5014500;28;20126;-49
2022/08/02 11:44:32;;;;;;;7.30;1.58;;;;;;;;;;5014706;28;20053;-48
2022/08/02 11:47:07;;;;;;;4.40;1.30;;;;;;;;;;5032080;28;20136;-47
2022/08/02 11:49:36;;;;;;;4.43;1.35;;;;;;;;;;5013619;28;20478;-48
2022/08/02 11:52:05;;;;;;;13.02;1.70;;;;;;;;;;5019984;28;20165;-49
2022/08/02 11:54:33;;;;;;;5.20;1.27;;;;;;;;;;5034274;28;20475;-49
2022/08/02 11:57:18;;;;;;;7.15;1.30;;;;;;;;;;5033008;28;20459;-46
2022/08/02 11:59:46;;;;;;;5.38;1.30;;;;;;;;;;5013879;28;20045;-48
2022/08/02 12:02:22;;;;;;;3.65;0.98;;;;;;;;;;5013577;28;20140;-47
2022/08/02 12:04:56;;;;;;;3.90;1.52;;;;;;;;;;5017550;28;20053;-49
2022/08/02 12:07:25;;;;;;;13.77;2.05;;;;;;;;;;5015772;28;20137;-52
2022/08/02 12:09:54;;;;;;;8.70;1.73;;;;;;;;;;5015544;28;20042;-49
2022/08/02 12:12:23;;;;;;;10.90;1.80;;;;;;;;;;5023441;28;20095;-47
2022/08/02 12:14:52;;;;;;;7.72;1.52;;;;;;;;;;5033603;28;20126;-48
2022/08/02 12:20:16;;;;;;;6.40;1.50;;;;;;;;;;4988029;28;20494;-49
2022/08/02 12:22:45;;;;;;;12.13;1.85;;;;;;;;;;4991955;28;20069;-47
2022/08/02 12:25:21;;;;;;;7.90;1.30;;;;;;;;;;4991402;28;20489;-51
2022/08/02 12:27:54;;;;;;;10.57;1.52;;;;;;;;;;4971645;28;20379;-50
2022/08/02 12:30:25;;;;;;;7.97;1.70;;;;;;;;;;4997764;28;20082;-49
2022/08/02 12:32:52;;;;;;;8.57;1.73;;;;;;;;;;5048885;28;20052;-50
2022/08/02 12:35:22;;;;;;;10.35;1.50;;;;;;;;;;5018554;28;20049;-51
2022/08/02 12:37:52;;;;;;;11.25;1.75;;;;;;;;;;5012963;28;20050;-52
2022/08/02 12:40:31;;;;;;;5.55;1.50;;;;;;;;;;5012596;28;20483;-51
2022/08/02 12:43:02;;;;;;;9.07;1.63;;;;;;;;;;5015624;28;20071;-50
2022/08/02 12:45:31;;;;;;;3.50;1.35;;;;;;;;;;5027199;28;20049;-50
2022/08/02 12:48:01;;;;;;;7.47;1.33;;;;;;;;;;5018891;28;20064;-50
2022/08/02 12:50:38;;;;;;;8.85;1.30;;;;;;;;;;5020804;28;20472;-50
2022/08/02 12:53:14;;;;;;;8.95;1.48;;;;;;;;;;5030669;28;20045;-51
2022/08/02 12:55:56;;;;;;;6.10;1.08;;;;;;;;;;5022001;28;20486;-50
2022/08/02 12:58:24;;;;;;;7.68;1.33;;;;;;;;;;5019866;28;20071;-47
2022/08/02 13:00:53;;;;;;;8.10;1.52;;;;;;;;;;5018991;28;20046;-49
2022/08/02 13:03:22;;;;;;;8.40;1.42;;;;;;;;;;5031659;28;20079;-49
2022/08/02 13:05:58;;;;;;;9.50;1.20;;;;;;;;;;5025110;28;20038;-49
2022/08/02 13:08:28;;;;;;;3.72;1.02;;;;;;;;;;5012381;28;20475;-50
2022/08/02 13:10:58;;;;;;;6.57;1.42;;;;;;;;;;5018909;28;20054;-50
2022/08/02 13:13:30;;;;;;;85.72;8.15;;;;;;;;;;5021521;28;20550;-48
2022/08/02 13:15:57;;;;;;;5.07;1.10;;;;;;;;;;5012216;28;20654;-48
2022/08/02 13:18:25;;;;;;;9.50;1.50;;;;;;;;;;5032225;28;20119;-49
2022/08/02 13:20:53;;;;;;;5.85;1.60;;;;;;;;;;5032487;28;20045;-45
2022/08/02 13:23:21;;;;;;;5.40;1.20;;;;;;;;;;5032377;28;20387;-47
2022/08/02 13:25:52;;;;;;;5.70;1.10;;;;;;;;;;5021360;28;20060;-49
2022/08/02 13:28:18;;;;;;;6.07;1.17;;;;;;;;;;5012981;28;20057;-45
2022/08/02 13:30:51;;;;;;;7.57;1.42;;;;;;;;;;5032905;28;20816;-46
2022/08/02 13:33:18;;;;;;;4.68;1.40;;;;;;;;;;5044502;28;20053;-45
2022/08/02 13:35:47;;;;;;;4.45;1.10;;;;;;;;;;5012137;28;20070;-46
2022/08/02 13:38:17;;;;;;;59.95;5.88;;;;;;;;;;5012279;28;20065;-49
2022/08/02 13:43:34;;;;;;;5.40;1.27;;;;;;;;;;5012582;28;20359;-49
2022/08/02 13:46:04;;;;;;;7.63;1.27;;;;;;;;;;5022404;28;20164;-49
2022/08/02 13:48:32;;;;;;;6.20;1.30;;;;;;;;;;5032257;28;20049;-49
2022/08/02 13:50:58;;;;;;;8.90;1.38;;;;;;;;;;5032358;28;20045;-50
2022/08/02 13:53:26;;;;;;;6.55;1.23;;;;;;;;;;5015632;28;20054;-50
2022/08/02 13:55:57;;;;;;;8.65;1.35;;;;;;;;;;5011783;28;20486;-47
2022/08/02 13:58:25;;;;;;;8.65;1.67;;;;;;;;;;5024612;28;20115;-48
2022/08/02 14:00:55;;;;;;;9.68;1.27;;;;;;;;;;5018075;28;20046;-48
2022/08/02 14:03:26;;;;;;;5.72;1.17;;;;;;;;;;5012233;28;20064;-48
2022/08/02 14:05:53;;;;;;;5.93;1.17;;;;;;;;;;5031425;28;20478;-47
2022/08/02 14:08:24;;;;;;;3.67;0.90;;;;;;;;;;5032216;28;20144;-53
2022/08/02 14:10:54;;;;;;;8.52;1.75;;;;;;;;;;5031788;28;20107;-50
2022/08/02 14:13:22;;;;;;;94.72;8.52;;;;;;;;;;5028913;28;20087;-48
2022/08/02 14:15:50;;;;;;;4.30;1.10;;;;;;;;;;5012336;28;20586;-49
2022/08/02 14:18:20;;;;;;;3.90;1.08;;;;;;;;;;5012498;28;20093;-48
2022/08/02 14:20:50;;;;;;;4.95;1.05;;;;;;;;;;5012458;28;20140;-50
2022/08/02 14:23:19;;;;;;;5.32;1.40;;;;;;;;;;5027992;28;20056;-49
2022/08/02 14:25:49;;;;;;;7.13;1.33;;;;;;;;;;5027279;28;20049;-49
2022/08/02 14:28:19;;;;;;;9.10;1.38;;;;;;;;;;5026007;28;20053;-52
2022/08/02 14:30:54;;;;;;;5.20;1.10;;;;;;;;;;5046419;28;20083;-50
2022/08/02 14:33:23;;;;;;;7.03;1.30;;;;;;;;;;5039135;28;20049;-49
2022/08/02 14:35:59;;;;;;;7.78;1.38;;;;;;;;;;5034945;28;20684;-48
2022/08/02 14:38:31;;;;;;;5.95;1.60;;;;;;;;;;5035789;28;20168;-48
2022/08/02 14:41:01;;;;;;;5.95;1.20;;;;;;;;;;5033869;28;20038;-49
2022/08/02 14:46:14;;;;;;;;;;;;;;;;;;5027779;28;20056;-48
2022/08/02 14:48:44;;;;;;;4.20;0.98;;;;;;;;;;5031633;28;20510;-49
2022/08/02 14:51:14;;;;;;;6.00;1.02;;;;;;;;;;5031259;28;20054;-49
2022/08/02 14:53:44;;;;;;;4.93;0.93;;;;;;;;;;5026751;28;20674;-50
2022/08/02 14:56:11;;;;;;;4.35;1.05;;;;;;;;;;5023066;28;20045;-49
2022/08/02 14:58:41;;;;;;;8.38;0.98;;;;;;;;;;5032256;28;20056;-49
2022/08/02 15:01:10;;;;;;;4.85;1.10;;;;;;;;;;5017800;28;20569;-48
2022/08/02 15:03:39;;;;;;;6.70;1.23;;;;;;;;;;5018556;28;20147;-49
2022/08/02 15:06:07;;;;;;;5.25;1.30;;;;;;;;;;5028809;28;20054;-48
2022/08/02 15:08:38;;;;;;;5.85;1.25;;;;;;;;;;5022879;28;20053;-48
2022/08/02 15:11:06;;;;;;;4.07;1.17;;;;;;;;;;5029840;28;20084;-48
2022/08/02 15:13:34;;;;;;;5.93;1.20;;;;;;;;;;5031384;28;20111;-48
2022/08/02 15:16:01;;;;;;;7.22;1.63;;;;;;;;;;5021266;28;20072;-48
2022/08/02 15:18:31;;;;;;;6.30;1.10;;;;;;;;;;5026008;28;20061;-49